sensor_id;sensor_type;location;lat;lon;timestamp;pressure;altitude;pressure_sealevel;temperature;humidity
48041;BME280;33815;48.386;11.738;2023-03-23T00:00:36;96069.19;;;4.64;100.00
48041;BME280;33815;48.386;11.738;2023-03-23T00:03:01;96071.47;;;4.57;100.00
48041;BME280;33815;48.386;11.738;2023-03-23T00:05:26;96067.63;;;4.52;100.00
48041;BME280;33815;48.386;11.738;2023-03-23T00:07:54;96064.00;;;4.43;100.00
48041;BME280;33815;48.386;11.738;2023-03-23T00:10:20;96084.97;;;4.50;100.00
48041;BME280;33815;48.386;11.738;2023-03-23T00:12:45;96075.47;;;4.50;100.00
48041;BME280;33815;48.386;11.738;2023-03-23T00:15:14;96078.16;;;4.49;100.00
48041;BME280;33815;48.386;11.738;2023-03-23T00:17:42;96076.44;;;4.49;100.00
48041;BME280;33815;48.386;11.738;2023-03-23T00:20:09;96074.78;;;4.48;100.00
48041;BME280;33815;48.386;11.738;2023-03-23T00:22:37;96062.94;;;4.45;100.00
48041;BME280;33815;48.386;11.738;2023-03-23T00:25:06;96071.00;;;4.52;100.00
48041;BME280;33815;48.386;11.738;2023-03-23T00:27:33;96069.50;;;4.50;100.00
48041;BME280;33815;48.386;11.738;2023-03-23T00:29:58;96065.59;;;4.55;100.00
48041;BME280;33815;48.386;11.738;2023-03-23T00:32:24;96063.81;;;4.56;100.00
48041;BME280;33815;48.386;11.738;2023-03-23T00:34:56;96064.22;;;4.51;100.00
48041;BME280;33815;48.386;11.738;2023-03-23T00:37:24;96069.09;;;4.54;100.00
48041;BME280;33815;48.386;11.738;2023-03-23T00:39:49;96070.75;;;4.55;100.00
48041;BME280;33815;48.386;11.738;2023-03-23T00:42:17;96072.84;;;4.61;100.00
48041;BME280;33815;48.386;11.738;2023-03-23T00:44:42;96069.81;;;4.56;100.00
48041;BME280;33815;48.386;11.738;2023-03-23T00:47:09;96073.34;;;4.55;100.00
48041;BME280;33815;48.386;11.738;2023-03-23T00:49:36;96069.94;;;4.55;100.00
48041;BME280;33815;48.386;11.738;2023-03-23T00:52:03;96069.94;;;4.55;100.00
48041;BME280;33815;48.386;11.738;2023-03-23T00:54:29;96065.59;;;4.55;100.00
48041;BME280;33815;48.386;11.738;2023-03-23T00:56:56;96067.38;;;4.55;100.00
48041;BME280;33815;48.386;11.738;2023-03-23T00:59:21;96070.63;;;4.57;100.00
48041;BME280;33815;48.386;11.738;2023-03-23T01:01:48;96074.84;;;4.58;100.00
48041;BME280;33815;48.386;11.738;2023-03-23T01:04:14;96067.69;;;4.61;100.00
48041;BME280;33815;48.386;11.738;2023-03-23T01:06:41;96057.16;;;4.53;100.00
48041;BME280;33815;48.386;11.738;2023-03-23T01:09:10;96065.59;;;4.55;100.00
48041;BME280;33815;48.386;11.738;2023-03-23T01:11:36;96064.66;;;4.56;100.00
48041;BME280;33815;48.386;11.738;2023-03-23T01:14:02;96068.19;;;4.55;100.00
48041;BME280;33815;48.386;11.738;2023-03-23T01:16:28;96066.41;;;4.56;100.00
48041;BME280;33815;48.386;11.738;2023-03-23T01:18:53;96064.53;;;4.58;100.00
48041;BME280;33815;48.386;11.738;2023-03-23T01:21:20;96067.03;;;4.69;100.00
48041;BME280;33815;48.386;11.738;2023-03-23T01:23:46;96061.88;;;4.69;100.00
48041;BME280;33815;48.386;11.738;2023-03-23T01:26:16;96060.66;;;4.94;100.00
48041;BME280;33815;48.386;11.738;2023-03-23T01:28:42;96061.41;;;4.85;100.00
48041;BME280;33815;48.386;11.738;2023-03-23T01:31:10;96057.72;;;4.78;100.00
48041;BME280;33815;48.386;11.738;2023-03-23T01:33:37;96052.69;;;4.76;100.00
48041;BME280;33815;48.386;11.738;2023-03-23T01:36:11;96050.28;;;4.85;100.00
48041;BME280;33815;48.386;11.738;2023-03-23T01:38:37;96045.38;;;4.82;100.00
48041;BME280;33815;48.386;11.738;2023-03-23T01:41:03;96047.97;;;4.82;100.00
48041;BME280;33815;48.386;11.738;2023-03-23T01:43:29;96038.19;;;4.85;100.00
48041;BME280;33815;48.386;11.738;2023-03-23T01:45:55;96036.34;;;4.97;100.00
48041;BME280;33815;48.386;11.738;2023-03-23T01:48:24;96032.13;;;4.96;100.00
48041;BME280;33815;48.386;11.738;2023-03-23T01:50:57;96029.41;;;4.97;100.00
48041;BME280;33815;48.386;11.738;2023-03-23T01:53:28;96038.69;;;5.00;100.00
48041;BME280;33815;48.386;11.738;2023-03-23T01:55:56;96043.84;;;5.00;100.00
48041;BME280;33815;48.386;11.738;2023-03-23T01:58:27;96030.78;;;5.02;100.00
48041;BME280;33815;48.386;11.738;2023-03-23T02:00:54;96040.44;;;5.00;100.00
48041;BME280;33815;48.386;11.738;2023-03-23T02:03:21;96038.94;;;4.97;100.00
48041;BME280;33815;48.386;11.738;2023-03-23T02:05:49;96040.44;;;5.00;100.00
48041;BME280;33815;48.386;11.738;2023-03-23T02:08:16;96036.53;;;5.05;100.00
48041;BME280;33815;48.386;11.738;2023-03-23T02:10:43;96032.31;;;5.04;100.00
48041;BME280;33815;48.386;11.738;2023-03-23T02:13:11;96040.44;;;5.00;100.00
48041;BME280;33815;48.386;11.738;2023-03-23T02:16:03;96034.84;;;4.94;100.00
48041;BME280;33815;48.386;11.738;2023-03-23T02:18:42;96026.66;;;4.89;100.00
48041;BME280;33815;48.386;11.738;2023-03-23T02:26:38;96030.44;;;4.85;100.00
48041;BME280;33815;48.386;11.738;2023-03-23T02:32:27;96027.50;;;4.90;100.00
48041;BME280;33815;48.386;11.738;2023-03-23T02:35:12;96022.56;;;4.87;100.00
48041;BME280;33815;48.386;11.738;2023-03-23T02:37:52;96020.09;;;4.85;100.00
48041;BME280;33815;48.386;11.738;2023-03-23T02:40:45;96026.25;;;4.84;100.00
48041;BME280;33815;48.386;11.738;2023-03-23T02:43:14;96021.06;;;4.84;100.00
48041;BME280;33815;48.386;11.738;2023-03-23T02:45:41;96025.13;;;4.87;100.00
48041;BME280;33815;48.386;11.738;2023-03-23T02:48:08;96021.22;;;4.83;100.00
48041;BME280;33815;48.386;11.738;2023-03-23T02:50:36;96026.41;;;4.92;100.00
48041;BME280;33815;48.386;11.738;2023-03-23T02:53:06;96026.16;;;4.95;100.00
48041;BME280;33815;48.386;11.738;2023-03-23T02:55:33;96029.00;;;4.92;100.00
48041;BME280;33815;48.386;11.738;2023-03-23T02:57:59;96023.41;;;4.87;100.00
48041;BME280;33815;48.386;11.738;2023-03-23T03:00:27;96030.47;;;4.95;100.00
48041;BME280;33815;48.386;11.738;2023-03-23T03:02:54;96020.69;;;4.89;100.00
48041;BME280;33815;48.386;11.738;2023-03-23T03:05:34;96018.50;;;4.84;100.00
48041;BME280;33815;48.386;11.738;2023-03-23T03:08:21;96012.44;;;4.74;100.00
48041;BME280;33815;48.386;11.738;2023-03-23T03:11:03;96017.38;;;4.77;100.00
48041;BME280;33815;48.386;11.738;2023-03-23T03:16:21;96011.06;;;4.70;100.00
48041;BME280;33815;48.386;11.738;2023-03-23T03:19:26;96013.63;;;4.70;100.00
48041;BME280;33815;48.386;11.738;2023-03-23T03:21:54;96013.91;;;4.67;100.00
48041;BME280;33815;48.386;11.738;2023-03-23T03:24:24;96015.69;;;4.66;100.00
48041;BME280;33815;48.386;11.738;2023-03-23T03:26:52;96014.63;;;4.69;100.00
48041;BME280;33815;48.386;11.738;2023-03-23T03:29:32;96004.34;;;4.78;100.00
48041;BME280;33815;48.386;11.738;2023-03-23T03:31:59;95999.72;;;4.82;100.00
48041;BME280;33815;48.386;11.738;2023-03-23T03:34:26;96000.25;;;4.76;100.00
48041;BME280;33815;48.386;11.738;2023-03-23T03:36:54;96004.84;;;4.72;100.00
48041;BME280;33815;48.386;11.738;2023-03-23T03:39:23;96012.22;;;4.87;100.00
48041;BME280;33815;48.386;11.738;2023-03-23T03:41:48;96010.09;;;4.92;100.00
48041;BME280;33815;48.386;11.738;2023-03-23T03:44:14;96018.50;;;4.84;100.00
48041;BME280;33815;48.386;11.738;2023-03-23T03:46:40;96025.28;;;4.85;100.00
48041;BME280;33815;48.386;11.738;2023-03-23T03:49:07;96012.22;;;4.87;100.00
48041;BME280;33815;48.386;11.738;2023-03-23T03:51:33;96018.59;;;5.04;100.00
48041;BME280;33815;48.386;11.738;2023-03-23T03:53:59;96015.16;;;5.03;100.00
48041;BME280;33815;48.386;11.738;2023-03-23T03:56:25;96025.75;;;5.00;100.00
48041;BME280;33815;48.386;11.738;2023-03-23T03:58:52;96025.09;;;4.98;100.00
48041;BME280;33815;48.386;11.738;2023-03-23T04:01:19;96030.63;;;4.93;100.00
48041;BME280;33815;48.386;11.738;2023-03-23T04:03:48;96043.53;;;4.93;100.00
48041;BME280;33815;48.386;11.738;2023-03-23T04:06:13;96046.13;;;4.93;100.00
48041;BME280;33815;48.386;11.738;2023-03-23T04:08:39;96050.78;;;5.00;100.00
48041;BME280;33815;48.386;11.738;2023-03-23T04:11:06;96040.91;;;5.14;100.00
48041;BME280;33815;48.386;11.738;2023-03-23T04:13:32;96047.97;;;5.12;100.00
48041;BME280;33815;48.386;11.738;2023-03-23T04:15:57;96050.69;;;5.11;100.00
48041;BME280;33815;48.386;11.738;2023-03-23T04:18:22;96052.31;;;5.12;100.00
48041;BME280;33815;48.386;11.738;2023-03-23T04:20:49;96051.75;;;5.08;100.00
48041;BME280;33815;48.386;11.738;2023-03-23T04:23:16;96054.75;;;5.04;100.00
48041;BME280;33815;48.386;11.738;2023-03-23T04:25:47;96057.19;;;5.05;100.00
48041;BME280;33815;48.386;11.738;2023-03-23T04:28:14;96054.78;;;5.13;100.00
48041;BME280;33815;48.386;11.738;2023-03-23T04:30:41;96049.50;;;5.15;100.00
48041;BME280;33815;48.386;11.738;2023-03-23T04:33:08;96055.47;;;5.15;100.00
48041;BME280;33815;48.386;11.738;2023-03-23T04:35:34;96050.56;;;5.12;100.00
48041;BME280;33815;48.386;11.738;2023-03-23T04:37:59;96045.56;;;5.21;100.00
48041;BME280;33815;48.386;11.738;2023-03-23T04:40:24;96045.44;;;5.22;100.00
48041;BME280;33815;48.386;11.738;2023-03-23T04:42:50;96035.75;;;5.14;100.00
48041;BME280;33815;48.386;11.738;2023-03-23T04:45:20;96041.03;;;5.13;100.00
48041;BME280;33815;48.386;11.738;2023-03-23T04:47:48;96043.25;;;5.18;100.00
48041;BME280;33815;48.386;11.738;2023-03-23T04:50:20;96050.34;;;5.25;100.00
48041;BME280;33815;48.386;11.738;2023-03-23T04:52:46;96061.38;;;5.27;100.00
48041;BME280;33815;48.386;11.738;2023-03-23T04:55:13;96071.28;;;5.22;100.00
48041;BME280;33815;48.386;11.738;2023-03-23T04:57:38;96071.94;;;5.24;100.00
48041;BME280;33815;48.386;11.738;2023-03-23T05:00:05;96052.41;;;5.41;100.00
48041;BME280;33815;48.386;11.738;2023-03-23T05:02:37;96041.88;;;5.54;100.00
48041;BME280;33815;48.386;11.738;2023-03-23T05:05:05;96044.28;;;5.46;100.00
48041;BME280;33815;48.386;11.738;2023-03-23T05:07:30;96047.25;;;5.41;100.00
48041;BME280;33815;48.386;11.738;2023-03-23T05:09:55;96048.09;;;5.42;100.00
48041;BME280;33815;48.386;11.738;2023-03-23T05:12:21;96047.81;;;5.45;100.00
48041;BME280;33815;48.386;11.738;2023-03-23T05:14:46;96049.47;;;5.46;100.00
48041;BME280;33815;48.386;11.738;2023-03-23T05:17:11;96052.06;;;5.46;100.00
48041;BME280;33815;48.386;11.738;2023-03-23T05:19:37;96048.94;;;5.52;100.00
48041;BME280;33815;48.386;11.738;2023-03-23T05:22:03;96050.31;;;5.56;100.00
48041;BME280;33815;48.386;11.738;2023-03-23T05:24:32;96058.19;;;5.55;100.00
48041;BME280;33815;48.386;11.738;2023-03-23T05:26:59;96060.38;;;5.59;100.00
48041;BME280;33815;48.386;11.738;2023-03-23T05:29:25;96065.34;;;5.92;100.00
48041;BME280;33815;48.386;11.738;2023-03-23T05:31:52;96060.28;;;5.80;100.00
48041;BME280;33815;48.386;11.738;2023-03-23T05:34:18;96067.91;;;5.82;100.00
48041;BME280;33815;48.386;11.738;2023-03-23T05:36:44;96068.19;;;5.79;100.00
48041;BME280;33815;48.386;11.738;2023-03-23T05:39:11;96062.19;;;5.78;100.00
48041;BME280;33815;48.386;11.738;2023-03-23T05:41:37;96063.50;;;6.04;100.00
48041;BME280;33815;48.386;11.738;2023-03-23T05:44:02;96049.06;;;6.11;100.00
48041;BME280;33815;48.386;11.738;2023-03-23T05:46:28;96044.97;;;6.28;100.00
48041;BME280;33815;48.386;11.738;2023-03-23T05:48:53;96029.44;;;6.47;100.00
48041;BME280;33815;48.386;11.738;2023-03-23T05:51:19;96031.75;;;6.50;100.00
48041;BME280;33815;48.386;11.738;2023-03-23T05:53:45;96023.41;;;6.66;100.00
48041;BME280;33815;48.386;11.738;2023-03-23T05:56:10;96010.34;;;6.58;100.00
48041;BME280;33815;48.386;11.738;2023-03-23T05:58:36;96018.63;;;6.62;100.00
48041;BME280;33815;48.386;11.738;2023-03-23T06:01:06;96013.59;;;6.60;100.00
48041;BME280;33815;48.386;11.738;2023-03-23T06:03:31;96024.38;;;6.65;100.00
48041;BME280;33815;48.386;11.738;2023-03-23T06:05:57;96005.41;;;6.75;100.00
48041;BME280;33815;48.386;11.738;2023-03-23T06:08:22;96006.44;;;6.92;100.00
48041;BME280;33815;48.386;11.738;2023-03-23T06:10:49;96000.31;;;6.83;100.00
48041;BME280;33815;48.386;11.738;2023-03-23T06:13:14;96004.66;;;6.92;100.00
48041;BME280;33815;48.386;11.738;2023-03-23T06:15:39;96000.41;;;7.01;100.00
48041;BME280;33815;48.386;11.738;2023-03-23T06:18:05;95985.50;;;7.13;100.00
48041;BME280;33815;48.386;11.738;2023-03-23T06:20:30;95995.31;;;7.09;100.00
48041;BME280;33815;48.386;11.738;2023-03-23T06:22:55;96004.75;;;7.10;100.00
48041;BME280;33815;48.386;11.738;2023-03-23T06:25:22;95998.72;;;7.10;100.00
48041;BME280;33815;48.386;11.738;2023-03-23T06:27:47;95993.50;;;7.19;100.00
48041;BME280;33815;48.386;11.738;2023-03-23T06:30:13;95995.78;;;7.32;100.00
48041;BME280;33815;48.386;11.738;2023-03-23T06:32:40;95981.28;;;7.40;100.00
48041;BME280;33815;48.386;11.738;2023-03-23T06:35:06;95988.16;;;7.49;100.00
48041;BME280;33815;48.386;11.738;2023-03-23T06:37:34;95990.19;;;7.55;100.00
48041;BME280;33815;48.386;11.738;2023-03-23T06:40:00;95975.31;;;7.75;100.00
48041;BME280;33815;48.386;11.738;2023-03-23T06:42:25;95992.28;;;7.87;100.00
48041;BME280;33815;48.386;11.738;2023-03-23T06:44:51;96003.56;;;7.96;100.00
48041;BME280;33815;48.386;11.738;2023-03-23T06:47:16;95994.91;;;8.05;100.00
48041;BME280;33815;48.386;11.738;2023-03-23T06:49:42;96012.84;;;8.17;100.00
48041;BME280;33815;48.386;11.738;2023-03-23T06:52:07;96016.75;;;8.39;100.00
48041;BME280;33815;48.386;11.738;2023-03-23T06:54:33;96015.38;;;8.45;100.00
48041;BME280;33815;48.386;11.738;2023-03-23T06:56:58;96016.38;;;8.70;98.43
48041;BME280;33815;48.386;11.738;2023-03-23T06:59:23;96012.41;;;8.92;96.43
48041;BME280;33815;48.386;11.738;2023-03-23T07:01:49;96026.28;;;9.01;96.41
48041;BME280;33815;48.386;11.738;2023-03-23T07:04:14;96026.84;;;9.13;97.02
48041;BME280;33815;48.386;11.738;2023-03-23T07:06:41;96023.34;;;9.30;95.31
48041;BME280;33815;48.386;11.738;2023-03-23T07:09:06;96015.25;;;9.33;94.72
48041;BME280;33815;48.386;11.738;2023-03-23T07:11:32;96023.59;;;9.53;94.48
48041;BME280;33815;48.386;11.738;2023-03-23T07:13:57;96028.34;;;9.66;92.91
48041;BME280;33815;48.386;11.738;2023-03-23T07:16:22;96022.72;;;9.87;92.84
48041;BME280;33815;48.386;11.738;2023-03-23T07:18:48;96024.53;;;9.95;92.08
48041;BME280;33815;48.386;11.738;2023-03-23T07:21:13;96020.66;;;10.32;90.10
48041;BME280;33815;48.386;11.738;2023-03-23T07:23:38;96016.13;;;10.59;89.68
48041;BME280;33815;48.386;11.738;2023-03-23T07:26:04;96023.75;;;10.69;87.99
48041;BME280;33815;48.386;11.738;2023-03-23T07:28:29;96014.94;;;10.94;86.47
48041;BME280;33815;48.386;11.738;2023-03-23T07:30:55;96023.38;;;11.05;86.58
48041;BME280;33815;48.386;11.738;2023-03-23T07:33:20;96013.53;;;11.31;85.70
48041;BME280;33815;48.386;11.738;2023-03-23T07:35:46;96002.16;;;11.56;86.26
48041;BME280;33815;48.386;11.738;2023-03-23T07:38:12;96011.97;;;11.54;85.62
48041;BME280;33815;48.386;11.738;2023-03-23T07:40:38;96017.59;;;11.74;86.55
48041;BME280;33815;48.386;11.738;2023-03-23T07:43:04;96019.69;;;12.10;82.27
48041;BME280;33815;48.386;11.738;2023-03-23T07:45:31;96022.81;;;12.28;83.24
48041;BME280;33815;48.386;11.738;2023-03-23T07:47:56;96018.72;;;12.72;78.89
48041;BME280;33815;48.386;11.738;2023-03-23T07:50:21;96014.84;;;12.68;77.05
48041;BME280;33815;48.386;11.738;2023-03-23T07:52:49;96012.63;;;12.57;76.75
48041;BME280;33815;48.386;11.738;2023-03-23T07:55:14;96012.69;;;12.72;78.93
48041;BME280;33815;48.386;11.738;2023-03-23T07:57:46;96012.97;;;12.92;76.01
48041;BME280;33815;48.386;11.738;2023-03-23T08:00:14;96012.72;;;13.01;75.31
48041;BME280;33815;48.386;11.738;2023-03-23T08:02:45;96013.53;;;13.02;74.93
48041;BME280;33815;48.386;11.738;2023-03-23T08:05:12;96007.75;;;13.07;77.01
48041;BME280;33815;48.386;11.738;2023-03-23T08:07:39;96011.03;;;13.09;77.04
48041;BME280;33815;48.386;11.738;2023-03-23T08:10:06;96010.66;;;13.12;76.32
48041;BME280;33815;48.386;11.738;2023-03-23T08:12:35;96012.91;;;13.30;76.34
48041;BME280;33815;48.386;11.738;2023-03-23T08:15:00;95999.84;;;13.45;74.42
48041;BME280;33815;48.386;11.738;2023-03-23T08:17:26;96003.50;;;13.65;74.25
48041;BME280;33815;48.386;11.738;2023-03-23T08:19:51;96006.47;;;13.77;72.20
48041;BME280;33815;48.386;11.738;2023-03-23T08:22:18;96008.13;;;14.00;74.53
48041;BME280;33815;48.386;11.738;2023-03-23T08:24:43;96011.75;;;14.20;71.56
48041;BME280;33815;48.386;11.738;2023-03-23T08:27:09;96008.94;;;14.22;72.42
48041;BME280;33815;48.386;11.738;2023-03-23T08:29:34;96008.50;;;14.18;70.17
48041;BME280;33815;48.386;11.738;2023-03-23T08:31:59;96016.59;;;14.23;70.79
48041;BME280;33815;48.386;11.738;2023-03-23T08:34:27;96019.97;;;14.39;70.36
48041;BME280;33815;48.386;11.738;2023-03-23T08:36:52;96001.28;;;14.64;67.12
48041;BME280;33815;48.386;11.738;2023-03-23T08:39:18;96024.28;;;14.68;67.55
48041;BME280;33815;48.386;11.738;2023-03-23T08:41:43;96006.63;;;15.05;63.04
48041;BME280;33815;48.386;11.738;2023-03-23T08:44:09;96015.72;;;15.10;62.54
48041;BME280;33815;48.386;11.738;2023-03-23T08:46:34;96008.03;;;15.43;61.29
48041;BME280;33815;48.386;11.738;2023-03-23T08:49:00;96002.22;;;15.61;58.60
48041;BME280;33815;48.386;11.738;2023-03-23T08:51:25;96008.41;;;15.40;59.53
48041;BME280;33815;48.386;11.738;2023-03-23T08:53:51;96017.78;;;15.56;59.63
48041;BME280;33815;48.386;11.738;2023-03-23T08:56:17;96003.19;;;15.88;58.07
48041;BME280;33815;48.386;11.738;2023-03-23T08:58:43;95994.88;;;15.85;57.48
48041;BME280;33815;48.386;11.738;2023-03-23T09:01:08;96012.31;;;16.06;59.47
48041;BME280;33815;48.386;11.738;2023-03-23T09:03:35;96014.00;;;16.34;58.00
48041;BME280;33815;48.386;11.738;2023-03-23T09:06:03;96013.81;;;16.62;56.08
48041;BME280;33815;48.386;11.738;2023-03-23T09:08:29;96016.03;;;16.78;55.06
48041;BME280;33815;48.386;11.738;2023-03-23T09:11:02;96009.50;;;17.35;51.11
48041;BME280;33815;48.386;11.738;2023-03-23T09:13:28;96013.56;;;17.30;51.19
48041;BME280;33815;48.386;11.738;2023-03-23T09:15:53;96017.16;;;17.50;51.09
48041;BME280;33815;48.386;11.738;2023-03-23T09:18:19;96018.91;;;17.69;51.18
48041;BME280;33815;48.386;11.738;2023-03-23T09:20:46;96010.84;;;18.09;48.47
48041;BME280;33815;48.386;11.738;2023-03-23T09:23:11;96007.41;;;18.09;47.71
48041;BME280;33815;48.386;11.738;2023-03-23T09:25:38;96009.97;;;18.22;47.57
48041;BME280;33815;48.386;11.738;2023-03-23T09:28:04;96015.31;;;18.41;46.66
48041;BME280;33815;48.386;11.738;2023-03-23T09:30:32;95998.41;;;18.74;46.17
48041;BME280;33815;48.386;11.738;2023-03-23T09:33:00;96015.69;;;18.70;45.68
48041;BME280;33815;48.386;11.738;2023-03-23T09:35:29;96010.72;;;18.61;45.24
48041;BME280;33815;48.386;11.738;2023-03-23T09:37:56;96008.84;;;18.69;44.36
48041;BME280;33815;48.386;11.738;2023-03-23T09:40:29;96012.34;;;18.81;44.60
48041;BME280;33815;48.386;11.738;2023-03-23T09:43:00;96001.81;;;18.81;45.45
48041;BME280;33815;48.386;11.738;2023-03-23T09:48:36;95995.69;;;18.87;42.92
48041;BME280;33815;48.386;11.738;2023-03-23T09:51:25;95993.75;;;18.76;43.52
48041;BME280;33815;48.386;11.738;2023-03-23T09:53:55;95993.63;;;18.64;44.23
48041;BME280;33815;48.386;11.738;2023-03-23T09:56:22;95995.19;;;18.72;44.64
48041;BME280;33815;48.386;11.738;2023-03-23T09:58:56;96000.25;;;18.73;43.67
48041;BME280;33815;48.386;11.738;2023-03-23T10:01:33;96005.38;;;18.68;43.17
48041;BME280;33815;48.386;11.738;2023-03-23T10:04:06;95995.44;;;18.38;43.29
48041;BME280;33815;48.386;11.738;2023-03-23T10:06:33;96007.84;;;18.63;43.33
48041;BME280;33815;48.386;11.738;2023-03-23T10:09:01;95995.50;;;18.31;42.39
48041;BME280;33815;48.386;11.738;2023-03-23T10:11:55;95991.91;;;18.19;44.01
48041;BME280;33815;48.386;11.738;2023-03-23T10:17:15;96000.06;;;18.43;44.08
48041;BME280;33815;48.386;11.738;2023-03-23T10:20:27;95996.03;;;18.40;43.20
48041;BME280;33815;48.386;11.738;2023-03-23T10:26:02;96004.94;;;18.46;44.59
48041;BME280;33815;48.386;11.738;2023-03-23T10:28:40;96002.47;;;18.19;44.11
48041;BME280;33815;48.386;11.738;2023-03-23T10:31:11;96000.09;;;18.11;44.00
48041;BME280;33815;48.386;11.738;2023-03-23T10:33:49;96009.47;;;18.00;45.34
48041;BME280;33815;48.386;11.738;2023-03-23T10:36:26;96003.00;;;17.96;46.49
48041;BME280;33815;48.386;11.738;2023-03-23T10:39:10;96012.03;;;18.13;44.48
48041;BME280;33815;48.386;11.738;2023-03-23T10:41:36;96014.50;;;18.08;44.85
48041;BME280;33815;48.386;11.738;2023-03-23T10:44:10;96006.66;;;17.88;45.67
48041;BME280;33815;48.386;11.738;2023-03-23T10:46:38;96012.78;;;17.82;45.11
48041;BME280;33815;48.386;11.738;2023-03-23T10:49:08;96004.69;;;17.77;45.19
48041;BME280;33815;48.386;11.738;2023-03-23T10:51:42;96010.91;;;17.89;45.48
48041;BME280;33815;48.386;11.738;2023-03-23T10:54:09;96007.13;;;18.24;45.00
48041;BME280;33815;48.386;11.738;2023-03-23T10:56:38;96008.13;;;18.23;44.99
48041;BME280;33815;48.386;11.738;2023-03-23T10:59:29;96008.06;;;18.36;44.37
48041;BME280;33815;48.386;11.738;2023-03-23T11:01:57;96012.44;;;18.49;44.08
48041;BME280;33815;48.386;11.738;2023-03-23T11:04:24;95999.41;;;18.22;45.15
48041;BME280;33815;48.386;11.738;2023-03-23T11:06:53;96001.41;;;18.27;44.36
48041;BME280;33815;48.386;11.738;2023-03-23T11:09:39;96008.53;;;18.26;45.60
48041;BME280;33815;48.386;11.738;2023-03-23T11:12:17;96004.84;;;18.59;44.62
48041;BME280;33815;48.386;11.738;2023-03-23T11:14:43;96007.59;;;18.46;45.33
48041;BME280;33815;48.386;11.738;2023-03-23T11:17:23;96012.09;;;18.64;44.18
48041;BME280;33815;48.386;11.738;2023-03-23T11:19:50;96014.59;;;18.84;43.99
48041;BME280;33815;48.386;11.738;2023-03-23T11:24:46;96014.94;;;18.94;45.07
48041;BME280;33815;48.386;11.738;2023-03-23T11:27:13;96010.06;;;19.35;44.17
48041;BME280;33815;48.386;11.738;2023-03-23T11:32:37;96002.31;;;18.96;43.58
48041;BME280;33815;48.386;11.738;2023-03-23T11:35:19;96009.81;;;18.99;44.40
48041;BME280;33815;48.386;11.738;2023-03-23T11:37:49;96006.91;;;18.82;44.47
48041;BME280;33815;48.386;11.738;2023-03-23T11:40:18;96012.06;;;18.96;44.52
48041;BME280;33815;48.386;11.738;2023-03-23T11:50:52;96000.28;;;19.17;44.23
48041;BME280;33815;48.386;11.738;2023-03-23T11:56:25;95995.91;;;19.29;43.04
48041;BME280;33815;48.386;11.738;2023-03-23T11:58:56;95992.69;;;19.46;43.26
48041;BME280;33815;48.386;11.738;2023-03-23T12:01:39;95985.63;;;19.58;41.46
48041;BME280;33815;48.386;11.738;2023-03-23T12:04:32;95975.41;;;19.43;40.34
48041;BME280;33815;48.386;11.738;2023-03-23T12:07:14;95976.88;;;19.58;41.04
48041;BME280;33815;48.386;11.738;2023-03-23T12:09:51;95982.81;;;19.72;40.96
48041;BME280;33815;48.386;11.738;2023-03-23T12:18:08;95969.56;;;19.90;40.68
48041;BME280;33815;48.386;11.738;2023-03-23T12:21:01;95970.41;;;19.91;41.43
48041;BME280;33815;48.386;11.738;2023-03-23T12:23:41;95969.94;;;19.94;40.50
48041;BME280;33815;48.386;11.738;2023-03-23T12:26:13;95969.78;;;20.19;40.27
48041;BME280;33815;48.386;11.738;2023-03-23T12:31:52;95971.28;;;20.15;40.60
48041;BME280;33815;48.386;11.738;2023-03-23T12:40:16;95970.78;;;19.57;40.07
48041;BME280;33815;48.386;11.738;2023-03-23T12:46:03;95969.97;;;20.06;40.34
48041;BME280;33815;48.386;11.738;2023-03-23T12:48:41;95970.28;;;19.97;40.32
48041;BME280;33815;48.386;11.738;2023-03-23T12:51:19;95967.78;;;20.02;39.79
48041;BME280;33815;48.386;11.738;2023-03-23T12:54:01;95973.44;;;20.06;40.91
48041;BME280;33815;48.386;11.738;2023-03-23T12:56:50;95961.75;;;19.83;40.50
48041;BME280;33815;48.386;11.738;2023-03-23T13:02:21;95977.53;;;19.72;41.41
48041;BME280;33815;48.386;11.738;2023-03-23T13:04:54;95961.88;;;19.70;41.13
48041;BME280;33815;48.386;11.738;2023-03-23T13:07:25;95957.41;;;19.89;41.32
48041;BME280;33815;48.386;11.738;2023-03-23T13:09:58;95959.06;;;20.14;40.88
48041;BME280;33815;48.386;11.738;2023-03-23T13:12:29;95961.41;;;20.22;40.45
48041;BME280;33815;48.386;11.738;2023-03-23T13:17:37;95953.94;;;19.70;39.89
48041;BME280;33815;48.386;11.738;2023-03-23T13:20:34;95974.38;;;19.63;41.27
48041;BME280;33815;48.386;11.738;2023-03-23T13:23:11;95963.09;;;19.56;40.98
48041;BME280;33815;48.386;11.738;2023-03-23T13:25:59;95966.03;;;19.47;41.10
48041;BME280;33815;48.386;11.738;2023-03-23T13:28:27;95957.50;;;19.45;40.67
48041;BME280;33815;48.386;11.738;2023-03-23T13:30:59;95968.31;;;19.25;42.65
48041;BME280;33815;48.386;11.738;2023-03-23T13:33:28;95967.19;;;19.14;42.00
48041;BME280;33815;48.386;11.738;2023-03-23T13:35:53;95962.63;;;19.03;42.85
48041;BME280;33815;48.386;11.738;2023-03-23T13:38:23;95962.19;;;18.88;43.11
48041;BME280;33815;48.386;11.738;2023-03-23T13:40:51;95967.13;;;18.77;42.93
48041;BME280;33815;48.386;11.738;2023-03-23T13:43:31;95978.22;;;18.61;43.88
48041;BME280;33815;48.386;11.738;2023-03-23T13:46:25;95969.38;;;18.74;43.85
48041;BME280;33815;48.386;11.738;2023-03-23T13:49:16;95962.59;;;18.84;44.15
48041;BME280;33815;48.386;11.738;2023-03-23T13:54:14;95970.53;;;18.59;44.51
48041;BME280;33815;48.386;11.738;2023-03-23T13:59:31;95964.31;;;18.47;44.71
48041;BME280;33815;48.386;11.738;2023-03-23T14:02:36;95961.09;;;18.20;44.98
48041;BME280;33815;48.386;11.738;2023-03-23T14:07:57;95957.69;;;18.12;45.65
48041;BME280;33815;48.386;11.738;2023-03-23T14:10:34;95959.78;;;18.29;45.42